Time;durP1;ratioP1;P1;durP2;ratioP2;P2;SDS_P1;SDS_P2;PMS_P1;PMS_P2;Temp;Humidity;BMP_temperature;BMP_pressure;BME280_temperature;BME280_humidity;BME280_pressure;Samples;Min_cycle;Max_cycle;Signal;HPM_P1;HPM_P2
2022/07/22 00:02:08;;;;;;;9.63;3.40;;;;;;;23.50;nan;100385.34;5008402;28;20542;-70
2022/07/22 00:04:33;;;;;;;11.55;3.40;;;;;;;23.42;nan;100378.84;5007628;28;20038;-70
2022/07/22 00:06:59;;;;;;;11.52;3.47;;;;;;;23.41;nan;100393.34;5013615;28;20044;-70
2022/07/22 00:09:24;;;;;;;8.30;3.35;;;;;;;23.26;nan;100340.84;5006743;28;20053;-70
2022/07/22 00:11:50;;;;;;;17.48;3.30;;;;;;;23.11;nan;100436.06;5011638;28;20498;-70
2022/07/22 00:14:16;;;;;;;10.50;2.92;;;;;;;23.00;nan;100399.81;5009617;28;20042;-69
2022/07/22 00:16:41;;;;;;;10.02;3.08;;;;;;;22.61;nan;100373.69;5011425;28;20170;-70
2022/07/22 00:19:07;;;;;;;8.60;3.10;;;;;;;22.66;nan;100374.34;5008318;28;20037;-70
2022/07/22 00:21:33;;;;;;;7.90;3.42;;;;;;;22.48;nan;100437.84;5010487;28;20034;-70
2022/07/22 00:23:58;;;;;;;8.68;3.10;;;;;;;22.47;nan;100416.66;5007355;28;20796;-70
2022/07/22 00:26:24;;;;;;;12.10;3.00;;;;;;;22.38;nan;100395.13;5012358;28;20041;-70
2022/07/22 00:28:49;;;;;;;8.15;3.22;;;;;;;;;;5011416;28;20038;-70
2022/07/22 00:31:14;;;;;;;11.67;3.53;;;;;;;21.96;nan;100402.50;5008805;28;20611;-69
2022/07/22 00:33:40;;;;;;;14.90;3.70;;;;;;;22.02;nan;100408.53;5007905;28;20033;-70
2022/07/22 00:36:06;;;;;;;18.20;3.75;;;;;;;21.93;nan;100370.09;5011028;28;20083;-70
2022/07/22 00:38:32;;;;;;;14.68;4.00;;;;;;;21.75;nan;100409.38;5008431;28;20839;-70
2022/07/22 00:40:57;;;;;;;14.50;4.22;;;;;;;21.65;nan;100472.00;5009997;28;20076;-70
2022/07/22 00:43:23;;;;;;;10.43;3.45;;;;;;;21.36;nan;100402.59;5007874;28;20593;-70
2022/07/22 00:45:48;;;;;;;17.00;4.05;;;;;;;21.15;nan;100402.97;5009170;28;20038;-70
2022/07/22 00:48:14;;;;;;;10.48;3.78;;;;;;;21.08;nan;100409.81;5010994;28;20030;-70
2022/07/22 00:50:39;;;;;;;14.00;4.18;;;;;;;21.03;nan;100408.78;5007565;28;20112;-70
2022/07/22 00:53:06;;;;;;;13.55;3.72;;;;;;;20.93;nan;100422.34;5008753;28;20041;-69
2022/07/22 00:55:33;;;;;;;9.98;3.58;;;;;;;20.88;nan;100360.06;5009501;28;20037;-69
2022/07/22 00:57:59;;;;;;;17.42;3.47;;;;;;;20.80;nan;100367.69;5009270;28;20038;-69
2022/07/22 01:00:24;;;;;;;8.93;3.10;;;;;;;;;;5013126;28;20384;-69
2022/07/22 01:02:49;;;;;;;14.97;3.90;;;;;;;20.75;nan;100399.09;5008726;28;20105;-69
2022/07/22 01:05:15;;;;;;;10.38;3.47;;;;;;;;;;5010850;28;20682;-69
2022/07/22 01:07:40;;;;;;;9.35;2.58;;;;;;;20.79;nan;100465.13;5007973;28;20034;-69
2022/07/22 01:10:06;;;;;;;7.95;3.50;;;;;;;20.84;nan;100437.50;5006127;28;20038;-69
2022/07/22 01:12:32;;;;;;;7.90;3.45;;;;;;;20.75;nan;100415.16;5008038;28;20030;-69
2022/07/22 01:14:58;;;;;;;10.85;2.97;;;;;;;;;;5005521;28;20476;-69
2022/07/22 01:17:23;;;;;;;4.90;2.72;;;;;;;20.63;nan;100428.19;5009567;28;20041;-68
2022/07/22 01:19:50;;;;;;;9.50;3.17;;;;;;;20.44;nan;100466.41;5011405;28;20096;-68
2022/07/22 01:22:15;;;;;;;9.93;3.03;;;;;;;20.49;nan;100436.13;5010432;28;20066;-68
2022/07/22 01:24:41;;;;;;;5.88;2.60;;;;;;;;;;5008129;28;20085;-70
2022/07/22 01:27:06;;;;;;;9.90;2.65;;;;;;;20.36;nan;100387.63;5005659;28;20060;-70
2022/07/22 01:29:32;;;;;;;6.63;3.35;;;;;;;20.44;nan;100473.66;5010235;28;20148;-70
2022/07/22 01:31:58;;;;;;;10.85;3.03;;;;;;;20.28;nan;100422.25;5006258;28;20037;-70
2022/07/22 01:34:23;;;;;;;9.13;2.97;;;;;;;20.23;nan;100425.78;5010129;28;20128;-70
2022/07/22 01:36:49;;;;;;;8.90;3.00;;;;;;;20.19;nan;100430.94;5009738;28;20040;-70
2022/07/22 01:39:15;;;;;;;9.45;3.08;;;;;;;20.14;nan;100432.88;5011228;28;20057;-70
2022/07/22 01:41:41;;;;;;;12.20;2.75;;;;;;;20.01;nan;100444.28;5011149;28;20049;-70
2022/07/22 01:44:06;;;;;;;8.70;3.28;;;;;;;20.05;nan;100442.63;5009954;28;20454;-70
2022/07/22 01:46:32;;;;;;;7.97;2.78;;;;;;;20.07;nan;100437.78;5010935;28;20465;-70
2022/07/22 01:48:57;;;;;;;18.38;4.32;;;;;;;20.06;nan;100423.59;5005526;28;20443;-70
2022/07/22 01:51:23;;;;;;;10.75;3.05;;;;;;;19.97;nan;100449.41;5008742;28;20038;-70
2022/07/22 01:53:49;;;;;;;20.92;3.92;;;;;;;19.95;nan;100374.06;5005554;28;20128;-70
2022/07/22 01:56:14;;;;;;;25.33;3.30;;;;;;;19.96;nan;100437.13;5006907;28;20361;-69
2022/07/22 01:58:40;;;;;;;13.25;3.80;;;;;;;19.86;nan;100477.34;5011171;28;20042;-69
2022/07/22 02:01:06;;;;;;;15.25;3.78;;;;;;;19.92;nan;100439.56;5008432;28;20472;-70
2022/07/22 02:03:32;;;;;;;18.45;3.42;;;;;;;19.97;nan;100391.41;5009666;28;20030;-69
2022/07/22 02:05:58;;;;;;;12.73;3.30;;;;;;;19.98;nan;100442.97;5006044;28;20063;-70
2022/07/22 02:08:23;;;;;;;9.32;3.15;;;;;;;19.91;nan;100418.47;5006762;28;20092;-68
2022/07/22 02:10:49;;;;;;;12.15;3.10;;;;;;;19.88;nan;100429.75;5008356;28;20045;-70
2022/07/22 02:13:14;;;;;;;6.13;2.83;;;;;;;19.79;nan;100410.06;5007733;28;20042;-70
2022/07/22 02:15:40;;;;;;;8.75;2.85;;;;;;;19.66;nan;100446.28;5009090;28;20037;-70
2022/07/22 02:18:17;;;;;;;10.18;3.08;;;;;;;19.55;nan;100392.16;5009667;28;20112;-70
2022/07/22 02:20:42;;;;;;;15.73;3.75;;;;;;;19.53;nan;100421.81;5008544;28;20049;-70
2022/07/22 02:23:11;;;;;;;5.93;3.35;;;;;;;19.48;nan;100416.53;5010383;28;20480;-70
2022/07/22 02:25:36;;;;;;;8.52;3.70;;;;;;;19.34;nan;100424.41;5010405;28;20486;-70
2022/07/22 02:28:02;;;;;;;10.30;3.50;;;;;;;19.26;nan;100419.69;5010740;28;20038;-70
2022/07/22 02:30:27;;;;;;;10.98;3.88;;;;;;;19.20;nan;100433.38;5005474;28;20057;-71
2022/07/22 02:32:52;;;;;;;10.93;4.05;;;;;;;;;;5007593;28;20507;-70
2022/07/22 02:35:18;;;;;;;9.87;3.57;;;;;;;18.99;nan;100417.56;5009058;28;20061;-70
2022/07/22 02:37:43;;;;;;;8.93;3.65;;;;;;;18.86;nan;100416.31;5009424;28;20282;-70
2022/07/22 02:40:09;;;;;;;11.85;3.85;;;;;;;18.80;nan;100467.34;5020338;28;20062;-70
2022/07/22 02:42:35;;;;;;;14.70;4.13;;;;;;;18.73;nan;100408.13;5007852;28;20053;-70
2022/07/22 02:45:01;;;;;;;14.00;4.45;;;;;;;18.71;nan;100419.88;5006678;28;20038;-70
2022/07/22 02:47:26;;;;;;;14.07;4.40;;;;;;;18.65;nan;100414.84;5008711;28;20555;-70
2022/07/22 02:49:52;;;;;;;16.13;4.43;;;;;;;18.61;nan;100392.50;5008148;28;20114;-70
2022/07/22 02:52:17;;;;;;;12.00;4.50;;;;;;;18.61;nan;100435.94;5006779;28;20042;-70
2022/07/22 02:54:43;;;;;;;11.85;4.70;;;;;;;18.54;nan;100437.34;5009030;28;20038;-71
2022/07/22 02:57:08;;;;;;;12.35;4.20;;;;;;;18.56;nan;100437.88;5008171;28;20037;-69
2022/07/22 02:59:34;;;;;;;12.80;4.68;;;;;;;;;;5008248;28;20034;-70
2022/07/22 03:01:59;;;;;;;10.68;4.55;;;;;;;18.51;nan;100446.69;5010799;28;20038;-69
2022/07/22 03:04:25;;;;;;;10.20;4.65;;;;;;;18.43;nan;100433.94;5014013;28;20034;-69
2022/07/22 03:06:50;;;;;;;14.38;5.07;;;;;;;18.40;nan;100509.94;5012205;28;20509;-69
2022/07/22 03:09:15;;;;;;;15.77;5.57;;;;;;;;;;5009750;28;20036;-69
2022/07/22 03:11:41;;;;;;;13.97;5.10;;;;;;;18.28;nan;100427.63;5013735;28;20033;-69
2022/07/22 03:14:06;;;;;;;13.07;4.90;;;;;;;;;;5008198;28;20913;-69
2022/07/22 03:16:32;;;;;;;15.13;5.22;;;;;;;18.20;nan;100419.41;5009710;28;20074;-69
2022/07/22 03:18:57;;;;;;;17.50;4.63;;;;;;;18.04;nan;100403.50;5013222;28;20041;-70
2022/07/22 03:21:23;;;;;;;15.02;5.20;;;;;;;18.11;nan;100421.84;5012927;28;20026;-69
2022/07/22 03:23:53;;;;;;;17.77;4.72;;;;;;;;;;5010954;28;20042;-70
2022/07/22 03:26:23;;;;;;;17.08;4.63;;;;;;;18.01;nan;100411.25;5013050;28;20034;-69
2022/07/22 03:28:49;;;;;;;17.52;5.40;;;;;;;17.98;nan;100425.91;5007720;28;20104;-69
2022/07/22 03:31:14;;;;;;;12.50;5.30;;;;;;;17.95;nan;100450.44;5012309;28;20034;-70
2022/07/22 03:33:40;;;;;;;17.05;5.85;;;;;;;17.90;nan;100450.44;5012674;28;20034;-71
2022/07/22 03:36:06;;;;;;;21.15;5.55;;;;;;;17.88;nan;100441.13;5009979;28;20038;-71
2022/07/22 03:38:31;;;;;;;16.23;5.00;;;;;;;17.85;nan;100467.25;5009723;28;20590;-69
2022/07/22 03:40:57;;;;;;;16.92;5.18;;;;;;;17.75;nan;100459.25;5010439;28;20041;-68
2022/07/22 03:43:22;;;;;;;14.23;5.25;;;;;;;17.77;nan;100462.47;5012715;28;20083;-69
2022/07/22 03:45:48;;;;;;;21.70;5.25;;;;;;;17.73;nan;100423.31;5012931;28;20183;-70
2022/07/22 03:48:13;;;;;;;12.23;4.55;;;;;;;;;;5001632;28;20523;-69
2022/07/22 03:50:39;;;;;;;9.10;4.73;;;;;;;17.72;nan;100462.47;5010807;28;20464;-70
2022/07/22 03:53:04;;;;;;;14.88;4.35;;;;;;;17.72;nan;100453.66;5011737;28;20284;-70
2022/07/22 03:55:29;;;;;;;15.63;4.38;;;;;;;17.72;nan;100454.50;5010751;28;20045;-70
2022/07/22 03:57:55;;;;;;;20.98;4.70;;;;;;;;;;5011791;28;20042;-70
2022/07/22 04:00:20;;;;;;;26.02;5.47;;;;;;;17.72;nan;100472.31;5006112;28;20032;-70
2022/07/22 04:02:46;;;;;;;23.73;6.38;;;;;;;17.69;nan;100440.91;5004542;28;20052;-69
2022/07/22 04:05:11;;;;;;;29.15;6.35;;;;;;;;;;5009418;28;20044;-69
2022/07/22 04:07:36;;;;;;;22.92;6.68;;;;;;;17.81;nan;100447.56;5002470;28;20033;-68
2022/07/22 04:10:05;;;;;;;23.90;5.85;;;;;;;17.89;nan;100474.72;5002785;28;20399;-69
2022/07/22 04:12:38;;;;;;;24.88;5.97;;;;;;;17.92;nan;100519.47;5003685;28;20037;-69
2022/07/22 04:15:04;;;;;;;22.33;5.93;;;;;;;;;;5007768;28;20038;-69
2022/07/22 04:17:30;;;;;;;9.52;4.72;;;;;;;17.96;nan;100468.03;5011129;28;20040;-69
2022/07/22 04:19:55;;;;;;;14.20;4.70;;;;;;;18.01;nan;100472.53;5007605;28;20392;-70
2022/07/22 04:22:21;;;;;;;17.48;4.97;;;;;;;;;;5008105;28;20039;-69
2022/07/22 04:24:46;;;;;;;23.88;4.80;;;;;;;;;;5012776;28;20397;-70
2022/07/22 04:27:11;;;;;;;28.30;5.27;;;;;;;;;;5008976;28;20044;-69
2022/07/22 04:29:37;;;;;;;29.00;5.00;;;;;;;18.20;nan;100454.88;5012006;28;20621;-69
2022/07/22 04:32:02;;;;;;;27.02;4.63;;;;;;;18.27;nan;100484.69;5011175;28;20283;-69
2022/07/22 04:34:28;;;;;;;21.70;4.35;;;;;;;18.34;nan;100489.72;5008525;28;20088;-71
2022/07/22 04:36:53;;;;;;;24.80;5.10;;;;;;;18.38;nan;100480.06;5011811;28;20079;-69
2022/07/22 04:39:18;;;;;;;23.63;5.35;;;;;;;;;;5010580;28;20030;-70
2022/07/22 04:41:44;;;;;;;20.42;5.55;;;;;;;18.51;nan;100460.03;5008940;28;20079;-66
2022/07/22 04:44:09;;;;;;;22.83;4.95;;;;;;;18.58;nan;100495.19;5010152;28;20124;-70
2022/07/22 04:46:35;;;;;;;17.70;5.35;;;;;;;18.63;nan;100478.38;5011242;28;20447;-69
2022/07/22 04:49:00;;;;;;;18.13;5.22;;;;;;;18.68;nan;100467.66;5009207;28;20947;-70
2022/07/22 04:51:26;;;;;;;20.70;6.18;;;;;;;18.75;nan;100475.31;5006568;28;20033;-70
2022/07/22 04:53:51;;;;;;;24.83;6.22;;;;;;;;;;5009715;28;20029;-70
2022/07/22 04:56:17;;;;;;;20.27;5.30;;;;;;;18.80;nan;100630.09;5011104;28;20034;-70
2022/07/22 04:58:42;;;;;;;28.98;5.43;;;;;;;18.94;nan;100499.50;5013447;28;20282;-71
2022/07/22 05:01:07;;;;;;;22.45;4.82;;;;;;;;;;5011816;28;20029;-70
2022/07/22 05:03:34;;;;;;;17.42;4.68;;;;;;;19.06;nan;100439.38;5009104;28;20046;-71
2022/07/22 05:06:00;;;;;;;25.17;5.45;;;;;;;19.21;nan;100491.03;5019585;28;20120;-70
2022/07/22 05:08:25;;;;;;;14.73;4.97;;;;;;;19.27;nan;100495.25;5007450;28;20176;-70
2022/07/22 05:10:51;;;;;;;11.30;4.47;;;;;;;19.33;nan;100488.78;5007165;28;20389;-72
2022/07/22 05:13:16;;;;;;;15.27;5.07;;;;;;;19.40;nan;100486.59;5012062;28;20034;-72
2022/07/22 05:15:41;;;;;;;26.23;5.97;;;;;;;19.48;nan;100491.31;5007760;28;20030;-72
2022/07/22 05:18:07;;;;;;;16.83;4.65;;;;;;;19.58;nan;100420.16;5011463;28;20518;-72
2022/07/22 05:20:32;;;;;;;24.15;5.88;;;;;;;19.63;nan;100527.75;5011203;28;20114;-70
2022/07/22 05:22:58;;;;;;;22.15;4.70;;;;;;;19.70;nan;100488.16;5010872;28;20145;-72
2022/07/22 05:25:24;;;;;;;19.77;4.85;;;;;;;19.87;nan;100473.56;5010263;28;20052;-71
2022/07/22 05:27:50;;;;;;;17.88;4.25;;;;;;;;;;5009997;28;20038;-70
2022/07/22 05:30:16;;;;;;;23.85;4.10;;;;;;;20.08;nan;100442.03;5007488;28;20096;-70
2022/07/22 05:32:41;;;;;;;20.80;7.30;;;;;;;20.21;nan;100513.53;5008682;28;20037;-71
2022/07/22 05:35:07;;;;;;;29.88;7.07;;;;;;;20.31;nan;100480.53;5010057;28;20033;-72
2022/07/22 05:37:32;;;;;;;25.55;7.38;;;;;;;20.51;nan;100490.13;5008134;28;20037;-71
2022/07/22 05:39:58;;;;;;;14.38;4.72;;;;;;;20.70;nan;100495.53;5007390;28;20037;-67
2022/07/22 05:42:23;;;;;;;19.65;4.50;;;;;;;20.87;nan;100513.75;5010663;28;20494;-67
2022/07/22 05:44:49;;;;;;;13.25;4.45;;;;;;;20.99;nan;100504.16;5009379;28;20474;-66
2022/07/22 05:47:14;;;;;;;27.20;5.72;;;;;;;21.16;nan;100495.59;5010665;28;20037;-67
2022/07/22 05:49:39;;;;;;;19.35;5.13;;;;;;;21.23;nan;100511.28;5009067;28;20488;-67
2022/07/22 05:52:05;;;;;;;10.48;3.90;;;;;;;21.44;nan;100523.28;5010104;28;20496;-67
2022/07/22 05:54:30;;;;;;;16.08;4.65;;;;;;;21.57;nan;100521.72;5010318;28;20038;-66
2022/07/22 05:56:56;;;;;;;9.90;4.22;;;;;;;21.73;nan;100514.19;5007339;28;20044;-65
2022/07/22 05:59:21;;;;;;;11.20;3.90;;;;;;;;;;5004505;28;20030;-73
2022/07/22 06:01:46;;;;;;;12.05;4.50;;;;;;;22.04;nan;100495.63;5007900;28;20070;-71
2022/07/22 06:04:12;;;;;;;18.55;3.72;;;;;;;22.23;nan;100570.63;5008679;28;20056;-71
2022/07/22 06:06:38;;;;;;;11.52;4.10;;;;;;;22.33;nan;100526.72;5009172;28;20057;-73
2022/07/22 06:09:04;;;;;;;12.35;3.97;;;;;;;22.45;nan;100480.56;5007564;28;20038;-73
2022/07/22 06:11:29;;;;;;;10.18;3.90;;;;;;;22.61;nan;100515.94;5007994;28;20049;-73
2022/07/22 06:13:54;;;;;;;10.02;3.65;;;;;;;22.75;nan;100521.22;5009424;28;20048;-73
2022/07/22 06:16:20;;;;;;;13.48;4.60;;;;;;;22.82;nan;100492.06;5007368;28;20038;-72
2022/07/22 06:18:45;;;;;;;10.40;4.55;;;;;;;22.96;nan;100457.91;5006972;28;20091;-73
2022/07/22 06:21:11;;;;;;;13.57;4.97;;;;;;;23.03;nan;100530.81;5009238;28;20029;-73
2022/07/22 06:23:36;;;;;;;9.00;4.00;;;;;;;23.11;nan;100567.69;5008437;28;20518;-72
2022/07/22 06:26:02;;;;;;;11.35;3.60;;;;;;;23.28;nan;100534.78;5001853;28;20092;-73
2022/07/22 06:28:28;;;;;;;13.57;3.97;;;;;;;23.37;nan;100521.41;5002225;28;20447;-73
2022/07/22 06:30:53;;;;;;;12.65;4.18;;;;;;;23.55;nan;100562.59;5007008;28;20041;-73
2022/07/22 06:33:19;;;;;;;8.55;3.42;;;;;;;23.65;nan;100488.94;5005022;28;20079;-72
2022/07/22 06:35:44;;;;;;;15.55;4.20;;;;;;;23.80;nan;100525.41;5009691;28;20037;-72
2022/07/22 06:38:10;;;;;;;17.25;4.63;;;;;;;23.85;nan;100554.84;5010738;28;20584;-71
2022/07/22 06:40:35;;;;;;;14.65;4.47;;;;;;;23.95;nan;100536.56;5010809;28;20034;-71
2022/07/22 06:43:02;;;;;;;11.43;4.10;;;;;;;24.08;nan;100548.28;5010781;28;20113;-69
2022/07/22 06:45:28;;;;;;;15.07;4.22;;;;;;;24.14;nan;100554.34;5010416;28;20026;-70
2022/07/22 06:47:53;;;;;;;10.65;3.97;;;;;;;24.22;nan;100550.88;5012881;28;20083;-71
2022/07/22 06:50:19;;;;;;;11.82;4.50;;;;;;;24.34;nan;100542.97;5012801;28;20033;-70
2022/07/22 06:52:44;;;;;;;10.85;4.45;;;;;;;24.46;nan;100501.19;5012925;28;20045;-70
2022/07/22 06:55:10;;;;;;;14.27;4.22;;;;;;;24.55;nan;100550.50;5011074;28;20076;-67
2022/07/22 06:57:36;;;;;;;14.32;3.63;;;;;;;24.58;nan;100552.53;5014672;28;20044;-67
2022/07/22 07:00:09;;;;;;;9.35;4.13;;;;;;;24.72;nan;100549.72;5015299;28;20630;-66
2022/07/22 07:02:35;;;;;;;12.40;4.20;;;;;;;24.83;nan;100562.56;5010179;28;20500;-68
2022/07/22 07:05:00;;;;;;;15.98;4.38;;;;;;;24.96;nan;100600.41;5013783;28;20062;-67
2022/07/22 07:07:26;;;;;;;13.55;4.30;;;;;;;25.03;nan;100539.56;5012843;28;20036;-67
2022/07/22 07:09:51;;;;;;;13.07;3.67;;;;;;;25.18;nan;100535.59;5010546;28;20036;-67
2022/07/22 07:12:17;;;;;;;12.93;3.63;;;;;;;25.26;nan;100534.00;5007180;28;20041;-67
2022/07/22 07:14:42;;;;;;;13.45;3.88;;;;;;;25.53;nan;100537.44;5013432;28;20033;-67
2022/07/22 07:17:08;;;;;;;7.63;2.95;;;;;;;25.58;nan;100502.97;5014305;28;20053;-65
2022/07/22 07:19:33;;;;;;;10.43;3.80;;;;;;;25.58;nan;100589.28;5012897;28;20074;-67
2022/07/22 07:21:59;;;;;;;11.77;3.75;;;;;;;25.70;nan;100541.97;5001496;28;20045;-72
2022/07/22 07:24:24;;;;;;;10.80;3.75;;;;;;;25.88;nan;100551.59;5010990;28;20523;-74
2022/07/22 07:26:49;;;;;;;8.43;3.88;;;;;;;;;;5008217;28;20030;-73
2022/07/22 07:29:15;;;;;;;10.67;3.60;;;;;;;26.04;nan;100549.91;5010628;28;20046;-74
2022/07/22 07:31:40;;;;;;;6.03;3.50;;;;;;;26.13;nan;100549.88;5005819;28;20295;-74
2022/07/22 07:34:05;;;;;;;9.55;3.33;;;;;;;26.25;nan;100535.69;5010598;28;20030;-73
2022/07/22 07:36:31;;;;;;;9.38;3.75;;;;;;;26.43;nan;100517.44;5011165;28;20052;-72
2022/07/22 07:38:57;;;;;;;9.25;3.70;;;;;;;26.52;nan;100518.19;5012133;28;20037;-75
2022/07/22 07:41:22;;;;;;;12.32;3.78;;;;;;;26.68;nan;100513.78;5013079;28;20045;-76
2022/07/22 07:43:48;;;;;;;9.90;4.00;;;;;;;26.73;nan;100537.91;5010342;28;20029;-74
2022/07/22 07:46:13;;;;;;;8.27;3.50;;;;;;;26.92;nan;100593.38;5012380;28;20438;-73
2022/07/22 07:48:39;;;;;;;12.55;4.32;;;;;;;27.02;nan;100557.84;5011199;28;20125;-74
2022/07/22 07:51:05;;;;;;;8.40;3.78;;;;;;;27.09;nan;100608.66;5012126;28;20508;-73
2022/07/22 07:53:30;;;;;;;7.05;3.50;;;;;;;27.27;nan;100591.22;5013499;28;20468;-73
2022/07/22 07:55:56;;;;;;;9.15;3.67;;;;;;;27.43;nan;100558.88;5010449;28;20472;-73
2022/07/22 07:58:21;;;;;;;10.00;3.40;;;;;;;27.44;nan;100576.72;5010277;28;20921;-73
2022/07/22 08:00:47;;;;;;;9.45;3.53;;;;;;;27.42;nan;100646.56;5014039;28;20452;-74
2022/07/22 08:03:12;;;;;;;5.78;2.95;;;;;;;27.52;nan;100585.84;5010321;28;20052;-74
2022/07/22 08:05:41;;;;;;;8.10;3.78;;;;;;;27.61;nan;100566.81;5012552;28;20492;-74
2022/07/22 08:08:07;;;;;;;5.67;3.30;;;;;;;27.68;nan;100580.56;5012419;28;20547;-74
2022/07/22 08:10:33;;;;;;;8.95;3.45;;;;;;;27.69;nan;100557.81;5012189;28;20066;-75
2022/07/22 08:12:59;;;;;;;9.57;3.30;;;;;;;27.69;nan;100531.53;5012930;28;20026;-74
2022/07/22 08:15:25;;;;;;;8.27;3.13;;;;;;;27.92;nan;100628.59;5011875;28;20065;-74
2022/07/22 08:17:51;;;;;;;5.88;3.17;;;;;;;28.03;nan;100574.78;5012855;28;20029;-76
2022/07/22 08:20:17;;;;;;;8.30;3.30;;;;;;;28.09;nan;100570.72;5013266;28;20018;-75
2022/07/22 08:22:42;;;;;;;8.02;3.70;;;;;;;28.15;nan;100562.00;5011390;28;20456;-73
2022/07/22 08:25:08;;;;;;;7.28;3.35;;;;;;;28.24;nan;100569.25;5010567;28;20056;-74
2022/07/22 08:27:34;;;;;;;16.13;3.40;;;;;;;28.36;nan;100571.94;5022213;28;20053;-75
2022/07/22 08:29:59;;;;;;;4.97;3.05;;;;;;;28.43;nan;100572.16;5009173;28;21356;-74
2022/07/22 08:32:25;;;;;;;7.28;3.25;;;;;;;28.52;nan;100572.06;5010444;28;20042;-74
2022/07/22 08:34:51;;;;;;;7.60;3.45;;;;;;;28.55;nan;100560.53;5010702;28;20049;-74
2022/07/22 08:37:16;;;;;;;7.13;3.67;;;;;;;28.58;nan;100567.97;5009501;28;20041;-75
2022/07/22 08:39:42;;;;;;;7.22;3.50;;;;;;;28.67;nan;100601.13;5010722;28;20451;-74
2022/07/22 08:42:07;;;;;;;9.73;3.42;;;;;;;28.77;nan;100546.44;5012969;28;20088;-75
2022/07/22 08:44:33;;;;;;;6.97;3.10;;;;;;;28.90;nan;100566.19;5011269;28;20037;-73
2022/07/22 08:47:00;;;;;;;9.45;3.50;;;;;;;29.07;nan;100602.28;5011128;28;20468;-73
2022/07/22 08:49:26;;;;;;;9.02;3.50;;;;;;;29.09;nan;100530.28;5002926;28;20049;-73
2022/07/22 08:51:52;;;;;;;6.32;3.55;;;;;;;29.18;nan;100552.63;5011223;28;20041;-74
2022/07/22 08:54:17;;;;;;;8.25;3.72;;;;;;;29.21;nan;100570.91;5012118;28;20096;-71
2022/07/22 08:56:50;;;;;;;8.18;3.25;;;;;;;29.32;nan;100548.72;5011964;28;20052;-73
2022/07/22 08:59:15;;;;;;;9.27;3.20;;;;;;;29.47;nan;100556.88;5012844;28;20522;-73
2022/07/22 09:02:20;;;;;;;9.70;3.30;;;;;;;29.62;nan;100535.53;5008306;28;20042;-72
2022/07/22 09:05:03;;;;;;;9.48;3.08;;;;;;;29.73;nan;100563.72;4983662;28;20076;-71
2022/07/22 09:07:29;;;;;;;8.75;2.78;;;;;;;29.88;nan;100590.09;4971375;28;20031;-71
2022/07/22 09:09:55;;;;;;;10.75;3.20;;;;;;;29.96;nan;100569.31;4971744;28;20177;-71
2022/07/22 09:12:22;;;;;;;7.57;3.25;;;;;;;29.99;nan;100557.75;4984906;28;20034;-70
2022/07/22 09:14:50;;;;;;;7.80;3.00;;;;;;;30.04;nan;100575.69;4983955;28;20144;-71
2022/07/22 09:17:38;;;;;;;7.90;3.17;;;;;;;30.09;nan;100553.69;4985543;28;20042;-71
2022/07/22 09:20:16;;;;;;;5.75;2.88;;;;;;;30.19;nan;100547.69;4986230;28;20275;-71
2022/07/22 09:22:49;;;;;;;6.60;2.90;;;;;;;30.26;nan;100545.16;4982183;28;20038;-70
2022/07/22 09:25:18;;;;;;;5.63;3.13;;;;;;;30.31;nan;100558.50;4984230;28;20560;-73
2022/07/22 09:27:43;;;;;;;11.32;3.35;;;;;;;30.41;nan;100542.75;4973200;28;20043;-72
2022/07/22 09:30:27;;;;;;;5.55;2.83;;;;;;;30.51;nan;100493.31;4985119;28;20030;-73
2022/07/22 09:32:56;;;;;;;13.98;3.10;;;;;;;30.60;nan;100548.25;4983867;28;20034;-74
2022/07/22 09:35:22;;;;;;;6.30;2.95;;;;;;;30.70;nan;100553.09;4993900;28;20040;-73
2022/07/22 09:37:54;;;;;;;8.07;3.10;;;;;;;30.80;nan;100554.44;5004188;28;20400;-74
2022/07/22 09:40:25;;;;;;;6.03;2.65;;;;;;;30.91;nan;100560.09;5009858;28;20030;-73
2022/07/22 09:42:56;;;;;;;10.15;3.03;;;;;;;30.99;nan;100555.63;5009474;28;20034;-73
2022/07/22 09:45:23;;;;;;;7.25;2.88;;;;;;;31.07;nan;100552.66;5007395;28;20632;-73
2022/07/22 09:47:50;;;;;;;7.07;2.70;;;;;;;31.17;nan;100562.16;5014252;28;20416;-73
2022/07/22 09:50:27;;;;;;;6.50;2.70;;;;;;;31.30;nan;100560.06;5005095;28;20099;-71
2022/07/22 09:52:55;;;;;;;6.07;2.83;;;;;;;31.38;nan;100543.50;5009154;28;20037;-72
2022/07/22 09:55:22;;;;;;;9.82;2.75;;;;;;;31.40;nan;100608.47;5011169;28;20037;-71
2022/07/22 09:57:49;;;;;;;8.35;3.00;;;;;;;31.48;nan;100516.84;5007435;28;20034;-71
2022/07/22 10:00:18;;;;;;;5.55;2.90;;;;;;;31.62;nan;100548.97;5013206;28;20045;-70
2022/07/22 10:02:54;;;;;;;6.22;2.70;;;;;;;31.69;nan;100543.63;5007600;28;20044;-70
2022/07/22 10:05:29;;;;;;;5.65;2.38;;;;;;;31.77;nan;100540.66;5008061;28;20036;-68
2022/07/22 10:07:55;;;;;;;5.75;2.88;;;;;;;31.84;nan;100539.97;5008193;28;20033;-68
2022/07/22 10:10:26;;;;;;;3.22;2.35;;;;;;;31.96;nan;100567.03;5008917;28;20407;-69
2022/07/22 10:12:54;;;;;;;3.78;2.80;;;;;;;32.01;nan;100546.84;5009508;28;20045;-68
2022/07/22 10:15:21;;;;;;;7.47;2.72;;;;;;;32.08;nan;100557.84;5006244;28;20034;-68
2022/07/22 10:17:49;;;;;;;3.47;2.05;;;;;;;32.17;nan;100522.19;5011499;28;20461;-71
2022/07/22 10:20:19;;;;;;;6.90;2.40;;;;;;;32.33;nan;100527.44;5013576;28;20038;-67
2022/07/22 10:22:51;;;;;;;3.70;2.22;;;;;;;32.47;nan;100535.00;5014874;28;20088;-69
2022/07/22 10:25:19;;;;;;;4.30;2.60;;;;;;;32.45;nan;100526.44;5012578;28;20116;-69
2022/07/22 10:27:52;;;;;;;6.03;2.60;;;;;;;32.62;nan;100529.38;5015092;28;20033;-68
2022/07/22 10:30:20;;;;;;;5.80;2.22;;;;;;;32.66;nan;100534.91;5015253;28;20320;-69
2022/07/22 10:33:01;;;;;;;;;;;;;;;32.70;nan;100538.44;5013632;28;20037;-69
2022/07/22 10:35:26;;;;;;;4.88;2.65;;;;;;;32.79;nan;100544.38;5014094;28;19913;-69
2022/07/22 10:37:55;;;;;;;4.38;2.72;;;;;;;32.84;nan;100524.94;5012081;28;20033;-69
2022/07/22 10:40:21;;;;;;;;;;;;;;;32.87;nan;100544.47;5026490;28;20122;-70
2022/07/22 10:42:56;;;;;;;6.95;2.30;;;;;;;32.90;nan;100535.53;5014099;28;19960;-74
2022/07/22 10:45:23;;;;;;;6.95;2.80;;;;;;;32.91;nan;100532.44;5014641;28;20682;-73
2022/07/22 10:47:52;;;;;;;3.92;2.53;;;;;;;33.01;nan;100533.69;5010362;28;20037;-74
2022/07/22 10:50:37;;;;;;;6.13;2.60;;;;;;;33.08;nan;100539.25;5013476;28;20030;-74
2022/07/22 10:53:11;;;;;;;4.35;2.33;;;;;;;33.17;nan;100547.16;5011953;28;20077;-73
2022/07/22 10:55:38;;;;;;;6.93;2.30;;;;;;;33.29;nan;100540.63;5011814;28;20029;-74
2022/07/22 10:58:34;;;;;;;7.45;2.67;;;;;;;33.40;nan;100549.69;5013828;28;20025;-73
2022/07/22 11:01:04;;;;;;;5.45;2.22;;;;;;;33.51;nan;100519.75;5011475;28;20026;-74
2022/07/22 11:03:31;;;;;;;5.80;2.40;;;;;;;33.60;nan;100506.59;5012887;28;20038;-73
2022/07/22 11:05:59;;;;;;;4.38;2.47;;;;;;;33.64;nan;100513.66;5025521;28;20034;-73
2022/07/22 11:08:25;;;;;;;;;;;;;;;33.68;nan;100530.81;5012678;28;20093;-73
2022/07/22 11:10:50;;;;;;;5.43;2.70;;;;;;;33.72;nan;100502.78;5013605;28;20363;-74
2022/07/22 11:13:36;;;;;;;5.45;2.50;;;;;;;33.78;nan;100504.75;5011273;28;20392;-72
2022/07/22 11:16:20;;;;;;;10.02;2.90;;;;;;;33.82;nan;100480.19;5012964;28;20083;-74
2022/07/22 11:18:45;;;;;;;6.22;2.55;;;;;;;33.88;nan;100525.09;5011760;28;20052;-74
2022/07/22 11:21:11;;;;;;;11.38;2.40;;;;;;;33.92;nan;100511.47;5013283;28;20022;-74
2022/07/22 11:23:40;;;;;;;5.18;2.35;;;;;;;34.00;nan;100508.41;5011029;28;20665;-73
2022/07/22 11:26:08;;;;;;;6.47;2.80;;;;;;;34.12;nan;100498.31;5012680;28;20120;-73
2022/07/22 11:28:39;;;;;;;4.50;2.50;;;;;;;34.17;nan;100536.22;5009434;28;20034;-73
2022/07/22 11:31:09;;;;;;;12.18;2.90;;;;;;;34.27;nan;100510.91;5013211;28;20032;-73
2022/07/22 11:33:35;;;;;;;6.88;2.67;;;;;;;34.36;nan;100483.19;5010016;28;20030;-73
2022/07/22 11:36:05;;;;;;;7.53;2.70;;;;;;;34.44;nan;100447.28;5009483;28;20042;-72
2022/07/22 11:38:45;;;;;;;5.32;2.80;;;;;;;34.52;nan;100503.56;5008976;28;20038;-73
2022/07/22 11:41:13;;;;;;;6.03;2.67;;;;;;;34.57;nan;100499.66;5012667;28;20202;-73
2022/07/22 11:43:49;;;;;;;7.60;2.80;;;;;;;34.53;nan;100486.00;5014657;28;20030;-73
2022/07/22 11:46:18;;;;;;;4.80;2.90;;;;;;;34.65;nan;100506.00;5011457;28;20038;-72
2022/07/22 11:48:44;;;;;;;4.25;3.03;;;;;;;34.72;nan;100503.28;5010580;28;20033;-73